Time;durP1;ratioP1;P1;durP2;ratioP2;P2;SDS_P1;SDS_P2;PMS_P1;PMS_P2;Temp;Humidity;BMP_temperature;BMP_pressure;BME280_temperature;BME280_humidity;BME280_pressure;Samples;Min_cycle;Max_cycle;Signal;HPM_P1;HPM_P2
2022/05/10 00:00:35;;;;;;;11.68;5.22;;;15.70;99.90;;;;;;5140473;27;20046;-73
2022/05/10 00:03:04;;;;;;;9.70;4.28;;;15.70;99.90;;;;;;5123159;27;20389;-74
2022/05/10 00:05:41;;;;;;;16.95;5.05;;;15.70;99.90;;;;;;5140360;27;20061;-74
2022/05/10 00:08:11;;;;;;;10.20;4.72;;;15.60;99.90;;;;;;5122788;27;20102;-74
2022/05/10 00:10:37;;;;;;;10.27;4.68;;;15.70;99.90;;;;;;5122980;27;20043;-74
2022/05/10 00:13:03;;;;;;;16.35;4.78;;;15.80;99.90;;;;;;5140261;27;20473;-73
2022/05/10 00:15:29;;;;;;;12.48;4.90;;;15.90;99.90;;;;;;5140082;27;20058;-74
2022/05/10 00:17:55;;;;;;;12.60;5.05;;;16.10;99.90;;;;;;5140317;27;20050;-74
2022/05/10 00:20:24;;;;;;;12.65;5.45;;;16.20;99.90;;;;;;5122620;27;20050;-74
2022/05/10 00:22:51;;;;;;;12.90;4.88;;;16.30;99.80;;;;;;5139180;27;20050;-74
2022/05/10 00:25:22;;;;;;;12.38;4.43;;;16.20;99.90;;;;;;5139560;27;20564;-74
2022/05/10 00:27:48;;;;;;;14.95;4.97;;;16.20;99.90;;;;;;5122760;27;20043;-74
2022/05/10 00:30:13;;;;;;;14.32;5.13;;;16.30;99.90;;;;;;5139956;27;20046;-73
2022/05/10 00:32:40;;;;;;;11.07;4.70;;;16.30;99.90;;;;;;5139649;27;20580;-73
2022/05/10 00:35:16;;;;;;;9.75;4.70;;;16.20;99.90;;;;;;5139639;27;20046;-74
2022/05/10 00:37:47;;;;;;;13.70;5.55;;;16.00;99.90;;;;;;5139636;27;20073;-74
2022/05/10 00:40:15;;;;;;;13.38;4.68;;;16.00;99.90;;;;;;5122715;27;20046;-74
2022/05/10 00:42:58;;;;;;;10.52;4.80;;;15.90;99.90;;;;;;5139463;27;20045;-74
2022/05/10 00:45:42;;;;;;;13.88;5.13;;;15.80;99.90;;;;;;5139576;27;20554;-74
2022/05/10 00:48:14;;;;;;;12.35;5.20;;;15.80;99.90;;;;;;5138791;27;20107;-74
2022/05/10 00:50:48;;;;;;;10.30;4.20;;;15.70;99.90;;;;;;5139212;27;20046;-74
2022/05/10 00:53:29;;;;;;;12.52;4.22;;;15.60;99.90;;;;;;5138882;27;20393;-73
2022/05/10 00:56:08;;;;;;;11.63;4.60;;;15.50;99.90;;;;;;5138959;27;20084;-73
2022/05/10 00:58:36;;;;;;;8.85;3.88;;;15.50;99.90;;;;;;5118234;27;20058;-74
2022/05/10 01:01:03;;;;;;;14.07;5.25;;;15.30;99.90;;;;;;5136948;27;20199;-73
2022/05/10 01:03:50;;;;;;;15.70;5.40;;;15.40;99.90;;;;;;5118561;27;20508;-74
2022/05/10 01:06:20;;;;;;;;;;;15.40;99.90;;;;;;5102364;27;20076;-73
2022/05/10 01:09:01;;;;;;;13.88;3.92;;;15.50;99.90;;;;;;5118107;27;20343;-74
2022/05/10 01:11:51;;;;;;;10.90;4.18;;;15.40;99.90;;;;;;5119065;27;20051;-74
2022/05/10 01:14:26;;;;;;;7.80;4.05;;;15.30;99.90;;;;;;5118117;27;20047;-74
2022/05/10 01:16:52;;;;;;;10.30;4.32;;;15.30;99.90;;;;;;5136184;27;20086;-74
2022/05/10 01:19:17;;;;;;;14.85;4.97;;;15.20;99.90;;;;;;5118225;27;20057;-74
2022/05/10 01:22:13;;;;;;;9.55;4.53;;;15.20;99.90;;;;;;5117448;27;20043;-73
2022/05/10 01:25:21;;;;;;;10.63;4.20;;;15.10;99.90;;;;;;5101372;27;20054;-73
2022/05/10 01:27:56;;;;;;;17.00;5.38;;;15.10;99.90;;;;;;5067789;27;20525;-74
2022/05/10 01:30:30;;;;;;;12.23;4.47;;;15.10;99.90;;;;;;5117968;27;20043;-74
2022/05/10 01:36:07;;;;;;;11.73;4.40;;;15.10;99.90;;;;;;5135935;27;20102;-75
2022/05/10 01:38:36;;;;;;;10.43;4.40;;;15.00;99.90;;;;;;5100797;27;20051;-74
2022/05/10 01:41:29;;;;;;;10.15;4.35;;;14.90;99.90;;;;;;5117741;27;20051;-74
2022/05/10 01:44:03;;;;;;;10.35;4.57;;;14.90;99.90;;;;;;5136122;27;20074;-73
2022/05/10 01:46:31;;;;;;;10.68;4.63;;;14.90;99.90;;;;;;5117391;27;20141;-74
2022/05/10 01:49:09;;;;;;;13.63;4.85;;;14.90;99.90;;;;;;5117721;27;20111;-73
2022/05/10 01:51:55;;;;;;;16.85;5.47;;;15.00;99.90;;;;;;5117109;27;20047;-73
2022/05/10 01:54:39;;;;;;;10.30;4.57;;;15.00;99.90;;;;;;5117848;27;20057;-74
2022/05/10 01:57:10;;;;;;;12.70;4.88;;;15.00;99.90;;;;;;5100446;27;20055;-74
2022/05/10 01:59:37;;;;;;;10.95;4.65;;;15.00;99.90;;;;;;5117093;27;20113;-74
2022/05/10 02:02:05;;;;;;;13.10;4.93;;;15.10;99.90;;;;;;5117506;27;20482;-74
2022/05/10 02:04:36;;;;;;;11.25;4.60;;;15.10;99.90;;;;;;5117362;27;20047;-74
2022/05/10 02:07:16;;;;;;;13.88;4.78;;;15.10;99.90;;;;;;5135488;27;20531;-74
2022/05/10 02:10:12;;;;;;;9.73;4.15;;;15.10;99.90;;;;;;5100099;27;20152;-73
2022/05/10 02:12:42;;;;;;;13.85;4.68;;;15.10;99.90;;;;;;5117207;27;20492;-74
2022/05/10 02:15:16;;;;;;;8.00;4.55;;;15.00;99.90;;;;;;5117346;27;20080;-73
2022/05/10 02:18:00;;;;;;;11.30;4.45;;;15.10;99.90;;;;;;5116823;27;20133;-74
2022/05/10 02:20:47;;;;;;;16.83;6.32;;;15.10;99.90;;;;;;5117251;27;20104;-73
2022/05/10 02:23:22;;;;;;;10.60;5.18;;;15.20;99.90;;;;;;5116435;27;20042;-73
2022/05/10 02:25:54;;;;;;;11.60;5.10;;;15.20;99.90;;;;;;5099810;27;20047;-73
2022/05/10 02:29:03;;;;;;;13.65;5.63;;;15.30;99.90;;;;;;5117354;27;20055;-74
2022/05/10 02:34:34;;;;;;;11.63;5.47;;;15.50;99.90;;;;;;5116743;27;20057;-74
2022/05/10 02:37:00;;;;;;;12.10;5.68;;;15.70;99.90;;;;;;5116761;27;20542;-74
2022/05/10 02:39:26;;;;;;;16.63;5.47;;;15.80;99.90;;;;;;5099552;27;20046;-74
2022/05/10 02:41:52;;;;;;;12.13;4.88;;;15.80;99.90;;;;;;5083005;27;20126;-74
2022/05/10 02:44:18;;;;;;;11.75;5.18;;;15.80;99.90;;;;;;5116295;27;20051;-74
2022/05/10 02:46:44;;;;;;;14.35;5.45;;;15.80;99.90;;;;;;5116724;27;20047;-75
2022/05/10 02:49:10;;;;;;;10.02;5.30;;;15.70;99.90;;;;;;5099657;27;20047;-74
2022/05/10 02:51:36;;;;;;;13.40;5.65;;;15.70;99.90;;;;;;5116100;27;20082;-74
2022/05/10 02:54:01;;;;;;;10.15;5.43;;;15.60;99.90;;;;;;5099662;27;20078;-74
2022/05/10 02:56:29;;;;;;;13.07;5.68;;;15.60;99.90;;;;;;5099349;28;20068;-74
2022/05/10 02:59:11;;;;;;;14.18;6.18;;;15.60;99.90;;;;;;5118395;27;20051;-73
2022/05/10 03:02:05;;;;;;;11.23;5.60;;;15.50;99.90;;;;;;5136753;27;20054;-73
2022/05/10 03:04:40;;;;;;;10.63;5.70;;;15.60;99.90;;;;;;5137187;27;20650;-73
2022/05/10 03:07:08;;;;;;;14.77;6.10;;;15.50;99.90;;;;;;5136795;27;20047;-74
2022/05/10 03:09:33;;;;;;;10.43;4.90;;;15.50;99.90;;;;;;5136591;27;20078;-74
2022/05/10 03:12:03;;;;;;;14.23;6.10;;;15.50;99.90;;;;;;5136923;27;20129;-74
2022/05/10 03:14:29;;;;;;;12.48;5.60;;;15.50;99.90;;;;;;5136820;27;20393;-74
2022/05/10 03:16:54;;;;;;;10.90;5.47;;;15.50;99.90;;;;;;5155134;27;20039;-74
2022/05/10 03:19:20;;;;;;;14.20;5.95;;;15.50;99.90;;;;;;5119832;27;20046;-74
2022/05/10 03:21:46;;;;;;;13.93;5.32;;;15.40;99.90;;;;;;5136210;27;20046;-73
2022/05/10 03:24:11;;;;;;;12.85;5.40;;;15.50;99.90;;;;;;5136551;27;20125;-73
2022/05/10 03:26:37;;;;;;;11.93;5.35;;;15.50;99.90;;;;;;5136529;27;20050;-76
2022/05/10 03:29:04;;;;;;;8.63;5.38;;;15.40;99.90;;;;;;5136768;27;20051;-74
2022/05/10 03:31:30;;;;;;;15.68;5.18;;;15.40;99.90;;;;;;5119410;27;20082;-73
2022/05/10 03:36:41;;;;;;;10.80;5.45;;;15.40;99.90;;;;;;5155050;27;20158;-74
2022/05/10 03:39:07;;;;;;;11.02;5.65;;;15.30;99.90;;;;;;5136386;27;20513;-74
2022/05/10 03:41:33;;;;;;;9.55;5.75;;;15.30;99.90;;;;;;5136188;27;20073;-74
2022/05/10 03:43:59;;;;;;;11.52;5.60;;;15.40;99.90;;;;;;5136760;27;20046;-74
2022/05/10 03:46:25;;;;;;;12.65;6.78;;;15.40;99.90;;;;;;5136349;27;20058;-74
2022/05/10 03:48:51;;;;;;;13.32;5.68;;;15.40;99.90;;;;;;5119784;27;20053;-74
2022/05/10 03:51:17;;;;;;;8.52;5.47;;;15.40;99.90;;;;;;5118807;27;20506;-74
2022/05/10 03:53:43;;;;;;;9.68;5.90;;;15.40;99.90;;;;;;5136540;27;20452;-74
2022/05/10 03:56:10;;;;;;;13.55;6.20;;;15.40;99.90;;;;;;5154593;27;20046;-74
2022/05/10 03:58:37;;;;;;;14.07;7.22;;;15.40;99.90;;;;;;5136556;27;20039;-74
2022/05/10 04:01:06;;;;;;;12.38;5.47;;;15.40;99.90;;;;;;5115796;28;20043;-74
2022/05/10 04:03:32;;;;;;;12.70;6.00;;;15.40;99.90;;;;;;5133846;28;20092;-74
2022/05/10 04:05:57;;;;;;;10.00;6.03;;;15.40;99.90;;;;;;5115562;28;20420;-74
2022/05/10 04:08:23;;;;;;;15.65;6.70;;;15.40;99.90;;;;;;5115620;28;20082;-73
2022/05/10 04:10:49;;;;;;;13.52;7.00;;;15.50;99.90;;;;;;5099023;28;20062;-74
2022/05/10 04:13:15;;;;;;;15.52;8.00;;;15.50;99.90;;;;;;5098592;28;20051;-74
2022/05/10 04:15:41;;;;;;;12.80;7.30;;;15.60;99.90;;;;;;5133803;28;20039;-74
2022/05/10 04:18:06;;;;;;;14.50;7.60;;;15.70;99.90;;;;;;5115863;28;20040;-74
2022/05/10 04:20:32;;;;;;;13.48;6.75;;;15.80;99.90;;;;;;5115756;27;20042;-75
2022/05/10 04:22:59;;;;;;;17.25;7.43;;;15.80;99.90;;;;;;5117687;27;20390;-74
2022/05/10 04:25:25;;;;;;;16.75;8.13;;;15.80;99.90;;;;;;5085367;27;20090;-74
2022/05/10 04:27:52;;;;;;;15.32;7.60;;;15.80;99.90;;;;;;5085394;27;20058;-74
2022/05/10 04:30:18;;;;;;;18.50;7.72;;;15.90;99.90;;;;;;5102044;27;20523;-73
2022/05/10 04:32:44;;;;;;;22.15;8.95;;;15.90;99.90;;;;;;5102098;27;20039;-74
2022/05/10 04:35:11;;;;;;;13.63;8.00;;;15.90;99.90;;;;;;5101974;27;20051;-74
2022/05/10 04:37:38;;;;;;;16.35;7.60;;;16.00;99.90;;;;;;5118858;27;20049;-74
2022/05/10 04:42:51;;;;;;;16.70;8.32;;;16.10;99.90;;;;;;5119011;27;20408;-74
2022/05/10 04:45:16;;;;;;;16.00;8.68;;;16.20;99.90;;;;;;5118827;27;20520;-74
2022/05/10 04:47:42;;;;;;;18.15;8.27;;;16.20;99.90;;;;;;5101936;27;20054;-74
2022/05/10 04:50:09;;;;;;;17.10;8.50;;;16.30;99.90;;;;;;5118872;27;20083;-74
2022/05/10 04:52:35;;;;;;;15.15;8.00;;;16.30;99.90;;;;;;5118039;27;20054;-74
2022/05/10 04:55:01;;;;;;;14.82;7.40;;;16.40;99.90;;;;;;5101799;27;20043;-74
2022/05/10 04:57:27;;;;;;;15.90;7.95;;;16.40;99.90;;;;;;5136634;27;20130;-74
2022/05/10 04:59:52;;;;;;;18.13;8.60;;;16.50;99.90;;;;;;5101373;27;20096;-73
2022/05/10 05:02:18;;;;;;;19.45;7.93;;;16.60;99.90;;;;;;5101378;27;20051;-74
2022/05/10 05:04:44;;;;;;;19.65;9.02;;;16.60;99.90;;;;;;5118583;27;20043;-74
2022/05/10 05:07:09;;;;;;;20.10;8.55;;;16.70;99.90;;;;;;5118637;27;20073;-74
2022/05/10 05:09:35;;;;;;;19.65;8.48;;;16.60;99.90;;;;;;5118326;27;20485;-74
2022/05/10 05:12:01;;;;;;;18.67;8.20;;;16.70;99.90;;;;;;5118272;27;20035;-74
2022/05/10 05:14:26;;;;;;;16.95;8.70;;;16.70;99.90;;;;;;5101146;27;20047;-74
2022/05/10 05:16:54;;;;;;;14.43;7.88;;;16.80;99.90;;;;;;5118158;27;20134;-74
2022/05/10 05:19:20;;;;;;;15.48;7.97;;;16.80;99.90;;;;;;5101300;27;20460;-74
2022/05/10 05:21:46;;;;;;;17.83;8.13;;;16.80;99.90;;;;;;5118164;27;20082;-74
2022/05/10 05:24:12;;;;;;;19.00;9.02;;;16.80;99.90;;;;;;5118265;27;20078;-73
2022/05/10 05:26:38;;;;;;;19.63;8.48;;;16.80;99.90;;;;;;5101261;27;20043;-74
2022/05/10 05:29:04;;;;;;;18.30;9.05;;;16.70;99.90;;;;;;5117957;27;20099;-74
2022/05/10 05:31:30;;;;;;;16.27;8.32;;;16.70;99.90;;;;;;5117635;27;20043;-74
2022/05/10 05:33:56;;;;;;;17.15;8.80;;;16.70;99.90;;;;;;5117885;27;20092;-74
2022/05/10 05:36:22;;;;;;;18.27;8.48;;;16.70;99.90;;;;;;5100967;27;20093;-74
2022/05/10 05:38:50;;;;;;;17.55;8.90;;;16.70;99.90;;;;;;5101015;27;20047;-74
2022/05/10 05:41:18;;;;;;;18.85;9.10;;;16.60;99.90;;;;;;5100965;27;20055;-74
2022/05/10 05:43:44;;;;;;;16.60;8.73;;;16.80;99.90;;;;;;5100751;27;20051;-73
2022/05/10 05:46:10;;;;;;;18.95;8.77;;;16.90;99.90;;;;;;5117475;27;20062;-74
2022/05/10 05:48:36;;;;;;;18.45;9.05;;;17.00;99.90;;;;;;5118489;27;20051;-74
2022/05/10 05:51:02;;;;;;;17.13;8.80;;;17.00;99.80;;;;;;5083704;27;20405;-73
2022/05/10 05:53:27;;;;;;;20.73;9.40;;;17.00;99.80;;;;;;5100400;27;20053;-72
2022/05/10 05:56:09;;;;;;;14.68;8.38;;;17.10;99.90;;;;;;5117936;27;20043;-73
2022/05/10 05:58:36;;;;;;;17.13;8.55;;;17.20;99.90;;;;;;5100148;27;20476;-75
2022/05/10 06:01:09;;;;;;;19.25;8.43;;;17.30;99.90;;;;;;5117104;27;20440;-76
2022/05/10 06:03:35;;;;;;;13.55;8.50;;;17.30;99.90;;;;;;5117485;27;20043;-77
2022/05/10 06:06:01;;;;;;;15.57;8.80;;;17.30;99.90;;;;;;5117048;27;20047;-77
2022/05/10 06:08:26;;;;;;;14.55;9.18;;;17.50;99.90;;;;;;5117647;27;20043;-77
2022/05/10 06:10:52;;;;;;;17.10;8.75;;;17.40;99.90;;;;;;5116637;27;20035;-77
2022/05/10 06:13:20;;;;;;;17.75;8.68;;;17.50;99.90;;;;;;5116175;27;20044;-77
2022/05/10 06:15:46;;;;;;;14.32;7.68;;;17.60;99.90;;;;;;5116510;27;20051;-77
2022/05/10 06:18:12;;;;;;;16.13;8.32;;;17.50;99.90;;;;;;5115554;27;20046;-76
2022/05/10 06:20:37;;;;;;;15.27;8.80;;;17.60;99.90;;;;;;5099369;27;20066;-78
2022/05/10 06:23:04;;;;;;;16.00;9.07;;;17.70;99.80;;;;;;5098656;27;20043;-73
2022/05/10 06:25:30;;;;;;;17.67;7.50;;;17.70;99.90;;;;;;5115849;27;20079;-77
2022/05/10 06:27:56;;;;;;;14.18;7.35;;;17.80;99.90;;;;;;5117016;27;20078;-76
2022/05/10 06:30:23;;;;;;;16.65;7.75;;;17.80;99.50;;;;;;5099847;27;20482;-76
2022/05/10 06:32:50;;;;;;;15.18;8.02;;;17.90;99.50;;;;;;5116652;27;20071;-76
2022/05/10 06:35:17;;;;;;;14.13;8.60;;;18.00;99.90;;;;;;5116652;27;20043;-76
2022/05/10 06:40:27;;;;;;;11.05;7.82;;;18.30;99.70;;;;;;5116517;27;20062;-77
2022/05/10 06:42:59;;;;;;;15.95;7.70;;;18.30;99.20;;;;;;5099924;27;20043;-78
2022/05/10 06:45:25;;;;;;;11.85;7.90;;;18.50;99.50;;;;;;5099201;27;20051;-77
2022/05/10 06:47:51;;;;;;;13.95;7.28;;;18.60;99.30;;;;;;5117094;27;20092;-77
2022/05/10 06:50:20;;;;;;;15.60;7.45;;;18.80;99.40;;;;;;5116641;27;20490;-77
2022/05/10 06:52:50;;;;;;;17.13;7.47;;;19.00;99.60;;;;;;5115911;27;20375;-77
2022/05/10 06:55:17;;;;;;;17.73;7.25;;;19.20;99.10;;;;;;5099272;27;20059;-79
2022/05/10 06:57:43;;;;;;;13.45;7.60;;;19.20;99.50;;;;;;5116102;27;20051;-74
2022/05/10 07:00:11;;;;;;;13.23;6.78;;;19.40;99.60;;;;;;5128635;27;20062;-77
2022/05/10 07:02:37;;;;;;;16.58;7.25;;;19.50;99.50;;;;;;5137467;27;20090;-79
2022/05/10 07:05:04;;;;;;;12.75;6.35;;;19.50;99.10;;;;;;5136911;27;20050;-78
2022/05/10 07:07:30;;;;;;;15.00;6.30;;;19.60;99.20;;;;;;5136887;27;20054;-78
2022/05/10 07:09:55;;;;;;;13.80;6.30;;;19.60;99.40;;;;;;5123331;27;20047;-78
2022/05/10 07:12:21;;;;;;;18.55;6.20;;;19.60;99.00;;;;;;5128268;27;20047;-78
2022/05/10 07:14:48;;;;;;;12.63;6.13;;;19.70;98.90;;;;;;5136805;27;20047;-80
2022/05/10 07:17:14;;;;;;;15.07;5.90;;;19.70;98.70;;;;;;5119615;27;20039;-77
2022/05/10 07:19:40;;;;;;;12.98;5.90;;;19.70;98.80;;;;;;5136901;27;20087;-79
2022/05/10 07:22:06;;;;;;;10.32;5.82;;;19.80;99.10;;;;;;5136275;27;20093;-79
2022/05/10 07:24:32;;;;;;;14.05;6.43;;;20.00;99.00;;;;;;5102558;27;20045;-79
2022/05/10 07:26:57;;;;;;;14.02;6.00;;;20.10;99.10;;;;;;5119521;27;20051;-79
2022/05/10 07:29:23;;;;;;;9.02;6.03;;;20.10;98.90;;;;;;5119651;27;20137;-79
2022/05/10 07:31:49;;;;;;;12.63;6.15;;;20.20;98.80;;;;;;5136895;27;20051;-79
2022/05/10 07:34:15;;;;;;;12.35;6.40;;;20.10;98.60;;;;;;5119446;27;20154;-80
2022/05/10 07:36:41;;;;;;;16.67;7.38;;;20.30;98.90;;;;;;5136676;27;20122;-77
2022/05/10 07:39:11;;;;;;;17.02;6.38;;;20.40;98.60;;;;;;5136448;27;20133;-80
2022/05/10 07:41:37;;;;;;;18.40;6.05;;;20.50;98.80;;;;;;5136651;27;20050;-78
2022/05/10 07:44:06;;;;;;;14.77;7.03;;;20.40;98.80;;;;;;5136719;27;20139;-78
2022/05/10 07:46:32;;;;;;;14.23;6.07;;;20.40;98.90;;;;;;5119575;27;20470;-77
2022/05/10 07:48:58;;;;;;;12.60;6.00;;;20.40;98.80;;;;;;5136537;27;20561;-79
2022/05/10 07:51:24;;;;;;;14.90;5.75;;;20.40;98.70;;;;;;5136396;27;20074;-83
2022/05/10 07:53:51;;;;;;;13.23;5.20;;;20.30;98.90;;;;;;5102727;27;20043;-79
2022/05/10 07:56:17;;;;;;;12.98;5.20;;;20.40;99.10;;;;;;5138162;27;20045;-80
2022/05/10 07:58:42;;;;;;;14.15;4.43;;;20.60;98.80;;;;;;5123264;27;20046;-81
2022/05/10 08:01:08;;;;;;;11.65;4.72;;;20.70;98.80;;;;;;5140143;27;20055;-79
2022/05/10 08:03:35;;;;;;;10.18;3.85;;;20.70;98.70;;;;;;5123483;27;20070;-81
2022/05/10 08:06:01;;;;;;;7.88;3.83;;;20.80;98.50;;;;;;5123100;27;20042;-81
2022/05/10 08:08:29;;;;;;;8.65;4.05;;;20.90;98.50;;;;;;5124082;27;20043;-91
2022/05/10 08:10:56;;;;;;;11.63;4.30;;;21.00;98.30;;;;;;5140957;27;20129;-83
2022/05/10 08:13:28;;;;;;;11.52;4.28;;;21.00;98.30;;;;;;5140251;27;20039;-79
2022/05/10 08:15:54;;;;;;;10.57;4.00;;;21.00;98.50;;;;;;5122868;27;20053;-78
2022/05/10 08:18:21;;;;;;;13.18;4.18;;;21.10;98.20;;;;;;5140004;27;20053;-77
2022/05/10 08:20:47;;;;;;;12.65;4.28;;;21.20;98.60;;;;;;5139986;27;20099;-79
2022/05/10 08:23:21;;;;;;;8.85;3.90;;;21.40;98.10;;;;;;5122763;27;20098;-81
2022/05/10 08:25:48;;;;;;;11.20;4.20;;;21.30;98.30;;;;;;5140301;27;20049;-86
2022/05/10 08:28:14;;;;;;;13.88;3.92;;;21.30;98.10;;;;;;5141383;27;20175;-84
2022/05/10 08:30:42;;;;;;;9.40;3.35;;;21.30;98.40;;;;;;5122504;27;20133;-80
2022/05/10 08:33:11;;;;;;;9.27;3.80;;;21.60;98.80;;;;;;5139919;27;20393;-78
2022/05/10 08:35:37;;;;;;;8.30;4.00;;;21.50;98.20;;;;;;5140485;27;20385;-78
2022/05/10 08:38:03;;;;;;;9.25;3.70;;;21.60;98.00;;;;;;5139790;27;20039;-78
2022/05/10 08:40:45;;;;;;;10.15;3.35;;;21.70;98.80;;;;;;5139540;27;20053;-79
2022/05/10 08:43:31;;;;;;;10.63;3.42;;;21.90;98.20;;;;;;5139614;27;20046;-78
2022/05/10 08:45:57;;;;;;;8.00;3.47;;;22.00;98.20;;;;;;5139756;27;20133;-80
2022/05/10 08:48:27;;;;;;;9.27;3.67;;;22.10;98.40;;;;;;5111382;27;20138;-76
2022/05/10 08:50:53;;;;;;;11.30;4.10;;;22.10;97.70;;;;;;5116465;27;20505;-76
2022/05/10 08:53:19;;;;;;;14.75;3.97;;;22.10;97.90;;;;;;5116266;27;20077;-77
2022/05/10 08:55:51;;;;;;;11.02;4.03;;;22.00;98.10;;;;;;5099394;27;20043;-77
2022/05/10 08:58:47;;;;;;;10.15;3.85;;;21.90;97.40;;;;;;5117931;27;20047;-77
2022/05/10 09:01:19;;;;;;;9.18;3.90;;;21.80;97.70;;;;;;5137614;27;20401;-78
2022/05/10 09:04:06;;;;;;;9.23;3.63;;;21.90;97.60;;;;;;5122179;27;20553;-78
2022/05/10 09:06:57;;;;;;;10.32;3.80;;;22.00;97.80;;;;;;5157362;27;20050;-77
2022/05/10 09:09:35;;;;;;;10.15;3.50;;;22.00;97.70;;;;;;5139017;27;20053;-79
2022/05/10 09:12:04;;;;;;;11.10;4.03;;;22.10;97.90;;;;;;5139327;27;20038;-79
2022/05/10 09:14:34;;;;;;;10.48;3.75;;;22.10;97.60;;;;;;5138975;27;20506;-76
2022/05/10 09:17:01;;;;;;;7.45;3.67;;;22.20;97.60;;;;;;5138634;27;20408;-78
2022/05/10 09:19:40;;;;;;;9.70;3.70;;;22.20;97.70;;;;;;5121347;27;20061;-77
2022/05/10 09:22:21;;;;;;;11.82;4.20;;;22.20;97.70;;;;;;5138702;27;20054;-78
2022/05/10 09:24:56;;;;;;;7.57;3.90;;;22.30;97.70;;;;;;5121921;27;20090;-78
2022/05/10 09:27:31;;;;;;;11.95;4.13;;;22.10;97.40;;;;;;5138794;27;20046;-78
2022/05/10 09:29:57;;;;;;;11.85;3.70;;;22.10;97.40;;;;;;5121367;27;20086;-78
2022/05/10 09:35:17;;;;;;;8.65;3.22;;;22.30;97.40;;;;;;5157119;27;20072;-78
2022/05/10 09:37:56;;;;;;;13.13;4.18;;;22.60;98.00;;;;;;5138016;27;20035;-78
2022/05/10 09:40:45;;;;;;;11.40;3.53;;;22.80;97.80;;;;;;5138812;27;20047;-78
2022/05/10 09:43:15;;;;;;;8.23;3.75;;;23.10;97.80;;;;;;5138428;27;20039;-78
2022/05/10 09:45:41;;;;;;;8.07;3.58;;;23.00;97.40;;;;;;5121386;27;20050;-77
2022/05/10 09:48:07;;;;;;;8.40;4.07;;;22.80;97.50;;;;;;5138480;27;20035;-78
2022/05/10 09:51:02;;;;;;;11.13;4.00;;;22.70;97.40;;;;;;5139121;27;20053;-81
2022/05/10 09:53:30;;;;;;;7.85;4.05;;;22.90;98.10;;;;;;5120876;27;20050;-80
2022/05/10 09:56:24;;;;;;;12.55;4.47;;;23.30;97.90;;;;;;5137892;27;20035;-80
2022/05/10 09:58:57;;;;;;;13.68;5.15;;;23.40;97.70;;;;;;5137880;27;20061;-80
2022/05/10 10:01:39;;;;;;;12.57;5.28;;;23.50;97.70;;;;;;5120729;27;20059;-80
2022/05/10 10:04:26;;;;;;;8.98;4.65;;;23.40;97.30;;;;;;5138015;27;20115;-80
2022/05/10 10:07:16;;;;;;;10.75;4.75;;;23.20;97.50;;;;;;5120763;27;20042;-80
2022/05/10 10:09:48;;;;;;;10.98;5.50;;;23.10;97.70;;;;;;5137903;27;20054;-81
2022/05/10 10:12:34;;;;;;;10.77;5.85;;;22.90;97.30;;;;;;5120731;27;20058;-78
2022/05/10 10:15:00;;;;;;;;;;;22.80;97.50;;;;;;5138438;27;20089;-78
2022/05/10 10:17:36;;;;;;;8.63;4.63;;;22.90;98.00;;;;;;5154548;27;19919;-79
2022/05/10 10:20:33;;;;;;;14.40;5.28;;;23.10;98.00;;;;;;5120412;27;20051;-78
2022/05/10 10:23:03;;;;;;;9.57;5.03;;;23.00;97.60;;;;;;5102211;27;20094;-75
2022/05/10 10:25:44;;;;;;;14.73;5.40;;;23.00;97.70;;;;;;5155853;27;20038;-74
2022/05/10 10:28:16;;;;;;;10.63;5.20;;;22.90;97.50;;;;;;5155882;27;20039;-75
2022/05/10 10:30:52;;;;;;;14.73;5.00;;;23.10;97.70;;;;;;5120318;27;20046;-74
2022/05/10 10:33:39;;;;;;;14.05;5.20;;;23.40;98.10;;;;;;5137931;27;20114;-75
2022/05/10 10:36:18;;;;;;;14.38;5.88;;;23.70;97.90;;;;;;5171765;27;20042;-75
2022/05/10 10:39:04;;;;;;;11.98;4.82;;;23.80;97.60;;;;;;5155690;27;20058;-74
2022/05/10 10:41:46;;;;;;;11.13;5.25;;;24.00;97.70;;;;;;5123016;27;20146;-75
2022/05/10 10:44:23;;;;;;;8.70;4.90;;;24.00;97.80;;;;;;5155607;27;20043;-75
2022/05/10 10:47:04;;;;;;;7.93;4.28;;;23.80;97.20;;;;;;5137166;27;20059;-76
2022/05/10 10:49:53;;;;;;;12.00;5.28;;;23.90;97.70;;;;;;5155764;27;20068;-77
2022/05/10 10:52:21;;;;;;;13.45;4.82;;;23.90;97.50;;;;;;5125880;27;20505;-77
2022/05/10 10:54:47;;;;;;;18.15;5.75;;;24.20;97.30;;;;;;5137223;27;20449;-76
2022/05/10 10:57:32;;;;;;;14.05;5.40;;;24.10;97.60;;;;;;5119389;27;20081;-79
2022/05/10 11:00:07;;;;;;;13.73;4.90;;;23.90;97.60;;;;;;5130687;27;20055;-79
2022/05/10 11:02:57;;;;;;;22.15;5.22;;;23.80;97.60;;;;;;5117963;28;20519;-78
2022/05/10 11:05:42;;;;;;;9.30;4.68;;;23.80;97.40;;;;;;5116364;27;20181;-77
2022/05/10 11:08:34;;;;;;;8.63;5.10;;;23.80;97.70;;;;;;5150906;27;20047;-77
2022/05/10 11:11:34;;;;;;;17.30;5.30;;;23.60;97.50;;;;;;5150804;27;20039;-77
2022/05/10 11:14:22;;;;;;;22.63;5.40;;;23.50;97.10;;;;;;5150542;27;20047;-77
2022/05/10 11:17:12;;;;;;;18.35;5.70;;;23.30;97.00;;;;;;5150761;27;20473;-77
2022/05/10 11:19:46;;;;;;;17.33;6.30;;;23.10;97.00;;;;;;5150599;27;20078;-77
2022/05/10 11:22:35;;;;;;;11.45;5.35;;;23.10;96.70;;;;;;5098833;28;20047;-77
2022/05/10 11:25:40;;;;;;;11.93;5.07;;;23.00;97.40;;;;;;5116193;28;20053;-77
2022/05/10 11:28:19;;;;;;;13.07;4.93;;;23.10;97.40;;;;;;5099270;28;20043;-77
2022/05/10 11:31:04;;;;;;;11.45;4.70;;;23.10;97.60;;;;;;5117671;27;20096;-76
2022/05/10 11:33:56;;;;;;;11.68;4.65;;;23.10;97.00;;;;;;5120231;27;20188;-76
2022/05/10 11:36:23;;;;;;;11.00;3.97;;;23.10;96.90;;;;;;5120534;27;20051;-77
2022/05/10 11:39:03;;;;;;;16.88;4.32;;;23.00;97.50;;;;;;5120030;27;20047;-77
2022/05/10 11:41:49;;;;;;;10.68;3.05;;;23.40;97.10;;;;;;5103344;27;20054;-77
2022/05/10 11:44:44;;;;;;;8.15;3.03;;;23.50;97.00;;;;;;5154959;27;20078;-76
2022/05/10 11:47:44;;;;;;;11.60;2.90;;;23.50;96.90;;;;;;5103381;27;20055;-78
2022/05/10 11:51:38;;;;;;;10.77;3.20;;;23.50;96.60;;;;;;5105045;27;20497;-80
2022/05/10 11:53:31;;;;;;;;;;;23.50;97.00;;;;;;5093018;27;20570;-77
2022/05/10 11:56:01;;;;;;;8.02;2.78;;;23.20;96.30;;;;;;5102992;27;19926;-74
2022/05/10 11:58:28;;;;;;;3.88;2.67;;;23.20;96.80;;;;;;5120743;27;20132;-77
2022/05/10 12:01:04;;;;;;;12.63;3.00;;;23.30;96.60;;;;;;5119492;27;20063;-79
2022/05/10 12:03:36;;;;;;;13.23;2.92;;;23.30;96.40;;;;;;5123397;27;20092;-78
2022/05/10 12:06:35;;;;;;;10.88;3.53;;;23.50;96.90;;;;;;5140056;27;20093;-83
2022/05/10 12:09:04;;;;;;;11.85;4.15;;;23.50;96.50;;;;;;5062593;27;20061;-75
2022/05/10 12:11:33;;;;;;;14.57;4.53;;;23.50;96.60;;;;;;5139974;27;20057;-77
2022/05/10 12:22:45;;;;;;;18.48;5.20;;;23.90;97.00;;;;;;5139842;27;20496;-78
2022/05/10 12:25:49;;;;;;;11.07;5.45;;;24.00;97.00;;;;;;5139805;27;20117;-78
2022/05/10 12:28:54;;;;;;;16.48;5.60;;;24.00;96.80;;;;;;5140264;27;20479;-77
2022/05/10 12:31:32;;;;;;;17.05;6.97;;;23.70;97.00;;;;;;5139124;27;20059;-77
2022/05/10 12:33:57;;;;;;;14.48;6.57;;;23.60;96.90;;;;;;5174493;27;20043;-77
2022/05/10 12:36:32;;;;;;;11.77;5.80;;;23.80;97.20;;;;;;5139571;27;20045;-78
2022/05/10 12:39:24;;;;;;;10.25;5.47;;;23.90;97.10;;;;;;5140056;27;20134;-77
2022/05/10 12:42:07;;;;;;;16.55;5.90;;;24.10;96.70;;;;;;5139284;27;20039;-77
2022/05/10 12:44:57;;;;;;;13.63;5.80;;;23.70;96.60;;;;;;5139748;27;20104;-78
2022/05/10 12:48:00;;;;;;;16.02;5.80;;;23.50;96.60;;;;;;5139653;27;20185;-78
2022/05/10 12:51:11;;;;;;;18.42;5.25;;;23.10;96.60;;;;;;5122184;27;20050;-77
2022/05/10 12:53:39;;;;;;;21.27;5.55;;;23.00;96.60;;;;;;5139121;27;20497;-77
2022/05/10 12:56:20;;;;;;;14.02;5.28;;;22.80;96.80;;;;;;5138877;27;20035;-78
2022/05/10 12:58:55;;;;;;;9.00;4.53;;;22.70;96.90;;;;;;5139274;27;20124;-78
2022/05/10 13:01:24;;;;;;;15.48;4.63;;;22.90;97.30;;;;;;5139025;27;20103;-78
2022/05/10 13:03:59;;;;;;;11.77;4.45;;;23.00;97.20;;;;;;5139164;27;20373;-77
2022/05/10 13:06:52;;;;;;;15.93;4.00;;;23.00;97.00;;;;;;5139379;27;20042;-77
2022/05/10 13:09:26;;;;;;;25.95;4.28;;;23.00;96.70;;;;;;5138845;27;20050;-77
2022/05/10 13:12:20;;;;;;;14.80;3.90;;;22.60;96.70;;;;;;5139178;27;20038;-76
2022/05/10 13:14:48;;;;;;;11.43;3.28;;;22.50;97.00;;;;;;5138645;27;20435;-76
2022/05/10 13:17:29;;;;;;;11.93;3.17;;;22.50;96.70;;;;;;5138829;27;20045;-75
2022/05/10 13:19:57;;;;;;;11.63;3.15;;;22.60;96.60;;;;;;5157339;27;20046;-74
2022/05/10 13:22:25;;;;;;;14.68;2.83;;;22.50;96.30;;;;;;5156830;27;20175;-74
2022/05/10 13:24:58;;;;;;;13.07;2.83;;;22.30;96.20;;;;;;5139065;27;20042;-73
2022/05/10 13:27:36;;;;;;;10.60;3.05;;;22.30;96.10;;;;;;5138531;27;20051;-73
2022/05/10 13:30:10;;;;;;;15.38;3.00;;;22.20;96.00;;;;;;5157138;27;20150;-74
2022/05/10 13:32:44;;;;;;;10.65;2.90;;;22.20;96.00;;;;;;5153523;27;20047;-75